Time;durP1;ratioP1;P1;durP2;ratioP2;P2;SDS_P1;SDS_P2;PMS_P1;PMS_P2;Temp;Humidity;BMP_temperature;BMP_pressure;BME280_temperature;BME280_humidity;BME280_pressure;Samples;Min_cycle;Max_cycle;Signal;HPM_P1;HPM_P2
2021/05/14 00:01:50;;;;;;;10.38;4.33;;;;;;;12.17;100.00;100458.77;1772959;80;21006;-89
2021/05/14 00:04:19;;;;;;;7.37;3.40;;;;;;;12.13;100.00;100462.56;1772930;80;21585;-89
2021/05/14 00:06:46;;;;;;;12.40;4.00;;;;;;;12.09;100.00;100465.55;1772953;80;21077;-89
2021/05/14 00:09:14;;;;;;;10.78;4.58;;;;;;;12.07;100.00;100467.71;1772802;80;21057;-89
2021/05/14 00:11:40;;;;;;;11.83;4.37;;;;;;;12.02;100.00;100460.95;1773458;80;21057;-89
2021/05/14 00:14:07;;;;;;;13.70;4.40;;;;;;;12.04;100.00;100465.55;1772855;80;21684;-89
2021/05/14 00:16:34;;;;;;;10.32;3.85;;;;;;;12.07;100.00;100465.01;1773085;80;21014;-89
2021/05/14 00:19:01;;;;;;;8.45;3.90;;;;;;;12.09;100.00;100460.16;1773307;80;21199;-89
2021/05/14 00:21:30;;;;;;;8.53;3.35;;;;;;;11.94;100.00;100452.88;1772942;80;21545;-89
2021/05/14 00:23:56;;;;;;;9.93;4.00;;;;;;;11.93;100.00;100460.70;1735643;82;21058;-89
2021/05/14 00:26:22;;;;;;;8.30;3.62;;;;;;;11.96;100.00;100452.59;1735780;82;21049;-90
2021/05/14 00:28:49;;;;;;;9.65;4.30;;;;;;;11.84;100.00;100450.15;1735664;82;21129;-89
2021/05/14 00:31:16;;;;;;;11.30;3.95;;;;;;;11.81;100.00;100438.00;1735941;82;21018;-89
2021/05/14 00:33:42;;;;;;;7.20;3.47;;;;;;;11.81;100.00;100437.19;1735941;82;21109;-89
2021/05/14 00:36:09;;;;;;;10.38;3.87;;;;;;;11.78;100.00;100435.04;1735607;82;20955;-89
2021/05/14 00:38:36;;;;;;;12.53;3.98;;;;;;;11.79;100.00;100435.30;1711380;82;21049;-89
2021/05/14 00:41:03;;;;;;;9.00;3.77;;;;;;;11.79;100.00;100432.08;1735806;82;21097;-89
2021/05/14 00:43:30;;;;;;;8.95;4.47;;;;;;;11.81;100.00;100425.05;1731705;82;21474;-89
2021/05/14 00:45:57;;;;;;;8.53;3.77;;;;;;;11.71;100.00;100421.83;1736310;82;21097;-89
2021/05/14 00:48:23;;;;;;;8.18;4.08;;;;;;;11.69;100.00;100415.08;1731949;82;21573;-89
2021/05/14 00:50:49;;;;;;;9.03;4.20;;;;;;;11.68;100.00;100413.47;1735981;82;21002;-89
2021/05/14 00:53:15;;;;;;;10.03;3.83;;;;;;;11.71;100.00;100405.63;1735965;82;20998;-89
2021/05/14 00:55:41;;;;;;;9.48;3.83;;;;;;;11.70;100.00;100412.09;1736119;82;20914;-89
2021/05/14 00:58:07;;;;;;;11.33;4.05;;;;;;;11.69;100.00;100413.17;1735842;82;21588;-89
2021/05/14 01:00:33;;;;;;;13.38;4.30;;;;;;;11.68;100.00;100412.92;1733146;82;20950;-89
2021/05/14 01:02:59;;;;;;;9.60;4.62;;;;;;;11.64;100.00;100409.13;1731084;82;21160;-89
2021/05/14 01:05:25;;;;;;;9.93;4.58;;;;;;;11.59;100.00;100402.41;1731296;82;20891;-88
2021/05/14 01:07:51;;;;;;;9.73;4.33;;;;;;;11.62;100.00;100403.73;1731478;82;21062;-89
2021/05/14 01:10:19;;;;;;;11.40;4.67;;;;;;;11.62;100.00;100407.77;1731331;82;21747;-89
2021/05/14 01:12:45;;;;;;;12.05;5.25;;;;;;;11.63;100.00;100405.36;1706834;82;21010;-88
2021/05/14 01:15:12;;;;;;;14.20;4.97;;;;;;;11.64;100.00;100411.02;1731453;82;21046;-89
2021/05/14 01:17:38;;;;;;;14.18;5.37;;;;;;;11.64;100.00;100399.68;1731170;82;20998;-89
2021/05/14 01:20:06;;;;;;;9.80;4.90;;;;;;;11.69;100.00;100396.98;1738455;81;21082;-89
2021/05/14 01:22:32;;;;;;;11.95;5.12;;;;;;;11.72;100.00;100397.79;1767762;80;21260;-88
2021/05/14 01:24:58;;;;;;;12.75;5.17;;;;;;;11.75;100.00;100394.55;1767923;80;20998;-88
2021/05/14 01:27:25;;;;;;;12.82;5.08;;;;;;;11.80;100.00;100392.39;1768013;80;21022;-88
2021/05/14 01:29:51;;;;;;;13.32;5.30;;;;;;;11.85;100.00;100392.91;1766215;80;21553;-89
2021/05/14 01:32:17;;;;;;;13.88;6.00;;;;;;;11.89;100.00;100387.27;1767971;80;21681;-88
2021/05/14 01:34:44;;;;;;;11.83;4.80;;;;;;;11.95;100.00;100388.88;1768181;80;21049;-89
2021/05/14 01:37:10;;;;;;;13.15;5.05;;;;;;;11.99;100.00;100387.23;1767812;80;21026;-89
2021/05/14 01:39:37;;;;;;;14.55;5.08;;;;;;;11.99;100.00;100389.39;1768120;80;21041;-88
2021/05/14 01:42:04;;;;;;;13.15;5.53;;;;;;;12.00;100.00;100382.09;1767934;80;21022;-88
2021/05/14 01:44:30;;;;;;;14.53;5.67;;;;;;;12.01;100.00;100386.42;1768080;80;21033;-88
2021/05/14 01:46:56;;;;;;;12.28;5.25;;;;;;;12.02;100.00;100393.44;1768055;81;21786;-88
2021/05/14 01:49:22;;;;;;;12.28;5.58;;;;;;;12.01;100.00;100380.48;1768118;80;20970;-88
2021/05/14 01:51:49;;;;;;;13.75;5.72;;;;;;;12.01;100.00;100386.42;1768156;80;21038;-88
2021/05/14 01:54:16;;;;;;;13.55;5.70;;;;;;;11.94;100.00;100376.44;1768021;80;21101;-88
2021/05/14 01:56:47;;;;;;;13.22;6.15;;;;;;;11.91;100.00;100381.88;1768163;80;21159;-89
2021/05/14 01:59:14;;;;;;;13.85;5.80;;;;;;;11.90;100.00;100383.48;1771905;80;22583;-88
2021/05/14 02:01:41;;;;;;;13.93;5.22;;;;;;;11.91;100.00;100384.57;1773006;79;21630;-88
2021/05/14 02:04:07;;;;;;;12.00;6.08;;;;;;;11.94;100.00;100381.84;1772890;80;21045;-88
2021/05/14 02:06:34;;;;;;;14.03;6.08;;;;;;;12.00;100.00;100385.63;1751417;80;21568;-88
2021/05/14 02:09:01;;;;;;;16.05;5.85;;;;;;;12.01;100.00;100382.38;1773155;80;21146;-87
2021/05/14 02:11:27;;;;;;;15.88;6.15;;;;;;;12.06;100.00;100382.38;1773656;80;21462;-88
2021/05/14 02:13:53;;;;;;;17.60;6.60;;;;;;;12.05;100.00;100383.43;1773148;80;21131;-88
2021/05/14 02:16:19;;;;;;;17.37;6.70;;;;;;;12.05;100.00;100383.43;1772843;80;21597;-88
2021/05/14 02:18:46;;;;;;;16.82;6.33;;;;;;;12.05;100.00;100383.43;1771078;79;21641;-88
2021/05/14 02:21:12;;;;;;;15.43;6.67;;;;;;;12.10;100.00;100386.67;1773150;80;21029;-88
2021/05/14 02:23:38;;;;;;;18.30;7.00;;;;;;;12.16;100.00;100378.27;1773333;80;21089;-88
2021/05/14 02:26:05;;;;;;;21.68;7.70;;;;;;;12.17;100.00;100377.17;1771737;80;21037;-88
2021/05/14 02:28:32;;;;;;;20.88;7.50;;;;;;;12.18;100.00;100373.41;1773216;80;21049;-88
2021/05/14 02:30:58;;;;;;;20.77;7.00;;;;;;;12.21;100.00;100370.16;1772788;80;21081;-88
2021/05/14 02:33:24;;;;;;;18.27;7.60;;;;;;;12.23;100.00;100364.46;1750753;80;21040;-88
2021/05/14 02:35:50;;;;;;;12.53;6.30;;;;;;;12.19;100.00;100364.21;1773000;80;21562;-88
2021/05/14 02:38:16;;;;;;;13.48;6.25;;;;;;;12.23;100.00;100363.91;1772799;80;21554;-88
2021/05/14 02:40:42;;;;;;;16.67;6.28;;;;;;;12.30;100.00;100357.44;1773140;80;20974;-88
2021/05/14 02:43:08;;;;;;;22.48;6.92;;;;;;;12.38;100.00;100364.42;1773218;80;21475;-88
2021/05/14 02:45:35;;;;;;;12.13;5.83;;;;;;;12.39;100.00;100357.12;1772619;80;20997;-88
2021/05/14 02:48:01;;;;;;;17.20;6.78;;;;;;;12.43;100.00;100354.11;1772761;80;21130;-88
2021/05/14 02:50:27;;;;;;;17.77;6.80;;;;;;;12.53;100.00;100351.89;1772878;80;20890;-88
2021/05/14 02:52:53;;;;;;;14.40;6.65;;;;;;;12.57;100.00;100357.83;1772684;80;20955;-87
2021/05/14 02:55:19;;;;;;;13.28;6.47;;;;;;;12.65;100.00;100353.73;1772625;80;21038;-87
2021/05/14 02:57:46;;;;;;;19.87;6.87;;;;;;;12.66;100.00;100358.85;1771902;80;21037;-88
2021/05/14 03:00:15;;;;;;;23.55;7.50;;;;;;;12.73;100.00;100359.89;1770099;80;21074;-87
2021/05/14 03:02:41;;;;;;;20.27;7.95;;;;;;;12.86;100.00;100360.62;1762960;81;21029;-87
2021/05/14 03:05:08;;;;;;;18.95;6.97;;;;;;;12.90;100.00;100358.97;1762811;80;20982;-87
2021/05/14 03:07:34;;;;;;;17.15;7.30;;;;;;;12.87;100.00;100358.73;1762880;81;21522;-87
2021/05/14 03:10:00;;;;;;;20.52;7.83;;;;;;;12.97;100.00;100351.91;1741503;81;20867;-87
2021/05/14 03:12:27;;;;;;;24.23;8.80;;;;;;;13.03;100.00;100353.48;1762864;80;21232;-87
2021/05/14 03:14:54;;;;;;;22.58;8.43;;;;;;;13.16;100.00;100350.67;1762596;81;21002;-87
2021/05/14 03:17:20;;;;;;;23.83;8.73;;;;;;;13.22;100.00;100350.89;1762948;80;21066;-87
2021/05/14 03:19:46;;;;;;;30.82;10.40;;;;;;;13.73;100.00;100350.98;1748008;80;20907;-87
2021/05/14 03:22:11;;;;;;;22.58;8.50;;;;;;;14.12;100.00;100354.08;1732484;82;20985;-86
2021/05/14 03:24:37;;;;;;;28.47;9.73;;;;;;;14.67;100.00;100354.48;1732797;82;21138;-87
2021/05/14 03:27:04;;;;;;;25.50;9.10;;;;;;;15.12;100.00;100352.20;1732427;82;21544;-86
2021/05/14 03:29:30;;;;;;;37.60;9.93;;;;;;;15.65;100.00;100343.69;1732288;82;21470;-86
2021/05/14 03:31:56;;;;;;;25.92;9.03;;;;;;;15.90;100.00;100343.78;1732514;82;21328;-86
2021/05/14 03:34:22;;;;;;;26.55;8.78;;;;;;;16.50;100.00;100339.56;1732619;82;20927;-86
2021/05/14 03:36:48;;;;;;;26.12;9.03;;;;;;;16.73;100.00;100343.11;1732648;82;21399;-86
2021/05/14 03:39:15;;;;;;;25.97;8.55;;;;;;;17.14;100.00;100343.53;1732371;82;21049;-86
2021/05/14 03:41:53;;;;;;;24.00;7.67;;;;;;;17.09;100.00;100340.96;1732445;82;21549;-86
2021/05/14 03:44:18;;;;;;;24.60;7.92;;;;;;;17.74;100.00;100336.05;1732158;82;21049;-86
2021/05/14 03:46:44;;;;;;;18.80;7.28;;;;;;;17.82;100.00;100333.92;1732611;82;21047;-87
2021/05/14 03:49:10;;;;;;;23.38;7.97;;;;;;;17.23;100.00;100328.05;1732478;82;21141;-86
2021/05/14 03:51:38;;;;;;;22.05;7.60;;;;;;;17.43;100.00;100324.02;1732387;82;21082;-86
2021/05/14 03:54:05;;;;;;;32.60;8.88;;;;;;;18.20;100.00;100329.31;1732449;82;21042;-86
2021/05/14 03:56:32;;;;;;;26.27;8.40;;;;;;;18.04;100.00;100331.69;1732551;82;21042;-86
2021/05/14 03:59:00;;;;;;;27.15;7.78;;;;;;;18.30;100.00;100333.13;1712084;82;21050;-86
2021/05/14 04:01:28;;;;;;;20.97;7.20;;;;;;;18.64;100.00;100340.53;1744674;81;21154;-86
2021/05/14 04:03:54;;;;;;;18.85;7.87;;;;;;;18.65;100.00;100341.33;1745577;81;21132;-86
2021/05/14 04:06:20;;;;;;;20.68;6.75;;;;;;;19.47;100.00;100349.91;1742903;82;21085;-86
2021/05/14 04:08:48;;;;;;;17.00;6.40;;;;;;;19.07;100.00;100347.95;1742709;82;20941;-86
2021/05/14 04:11:39;;;;;;;14.87;7.10;;;;;;;19.46;100.00;100348.85;1742691;82;21565;-86
2021/05/14 04:16:32;;;;;;;13.10;6.17;;;;;;;20.52;100.00;100335.20;1742925;82;21084;-85
2021/05/14 04:18:58;;;;;;;16.05;6.30;;;;;;;21.15;100.00;100339.83;1742940;82;21068;-85
2021/05/14 04:21:24;;;;;;;13.10;6.45;;;;;;;22.17;100.00;100343.70;1742924;82;20934;-86
2021/05/14 04:23:50;;;;;;;22.37;6.78;;;;;;;21.04;99.42;100336.73;1742799;82;21060;-86
2021/05/14 04:26:16;;;;;;;14.50;6.53;;;;;;;21.91;98.41;100333.04;1742887;82;21088;-85
2021/05/14 04:28:42;;;;;;;17.23;6.90;;;;;;;22.23;98.06;100329.39;1742769;82;21648;-85
2021/05/14 04:31:09;;;;;;;13.75;6.58;;;;;;;21.72;90.58;100323.44;1742946;82;20918;-85
2021/05/14 04:33:35;;;;;;;21.12;7.45;;;;;;;22.25;88.96;100331.02;1721641;82;21064;-84
2021/05/14 04:36:03;;;;;;;18.15;5.97;;;;;;;22.41;89.63;100331.34;1742744;82;21045;-85
2021/05/14 04:38:29;;;;;;;21.48;7.00;;;;;;;23.03;86.17;100333.35;1742567;82;21331;-85
2021/05/14 04:40:55;;;;;;;20.72;6.70;;;;;;;24.14;80.73;100339.52;1742891;82;20866;-85
2021/05/14 04:43:21;;;;;;;15.32;6.12;;;;;;;24.13;78.68;100346.98;1742864;82;20915;-85
2021/05/14 04:45:47;;;;;;;24.18;6.35;;;;;;;23.75;76.43;100342.92;1742741;82;21561;-86
2021/05/14 04:48:13;;;;;;;18.92;6.80;;;;;;;23.40;77.04;100348.27;1742795;82;21021;-85
2021/05/14 04:50:39;;;;;;;16.00;6.42;;;;;;;22.25;83.16;100348.86;1742954;82;21346;-85
2021/05/14 04:53:08;;;;;;;17.62;6.45;;;;;;;23.32;82.64;100343.73;1742616;82;21037;-86
2021/05/14 04:55:35;;;;;;;16.93;5.85;;;;;;;22.73;84.51;100347.16;1742680;82;21025;-86
2021/05/14 04:58:01;;;;;;;16.10;5.95;;;;;;;23.18;77.61;100346.09;1743129;82;20990;-85
2021/05/14 05:00:27;;;;;;;17.98;6.30;;;;;;;24.17;73.32;100342.92;1742795;82;20950;-85
2021/05/14 05:02:56;;;;;;;16.37;6.20;;;;;;;23.68;77.08;100342.72;1742629;82;21041;-85
2021/05/14 05:05:23;;;;;;;17.27;6.00;;;;;;;23.95;76.62;100333.38;1742285;82;21604;-84
2021/05/14 05:07:49;;;;;;;12.80;6.05;;;;;;;25.19;72.72;100330.37;1742570;82;21069;-84
2021/05/14 05:10:17;;;;;;;14.78;5.33;;;;;;;24.96;70.49;100333.62;1742471;82;21613;-85
2021/05/14 05:12:44;;;;;;;17.57;6.08;;;;;;;26.07;68.72;100336.43;1742674;82;21061;-84
2021/05/14 05:15:11;;;;;;;11.43;5.58;;;;;;;26.94;61.29;100330.89;1742739;82;21384;-84
2021/05/14 05:17:38;;;;;;;16.57;6.42;;;;;;;27.18;61.19;100337.34;1712040;83;21089;-84
2021/05/14 05:20:07;;;;;;;13.08;4.97;;;;;;;26.53;59.10;100338.28;1712145;83;20990;-84
2021/05/14 05:22:33;;;;;;;16.10;5.22;;;;;;;27.95;56.37;100336.88;1656290;85;21644;-85
2021/05/14 05:24:59;;;;;;;13.00;5.50;;;;;;;27.86;56.90;100334.43;1650518;86;20973;-84
2021/05/14 05:27:25;;;;;;;17.35;4.95;;;;;;;28.72;55.92;100332.98;1650484;86;21606;-84
2021/05/14 05:29:51;;;;;;;14.47;5.28;;;;;;;28.90;53.51;100322.55;1650380;86;21069;-84
2021/05/14 05:32:17;;;;;;;16.00;4.55;;;;;;;29.58;52.44;100310.20;1650364;86;21018;-84
2021/05/14 05:34:43;;;;;;;14.40;4.17;;;;;;;30.08;51.12;100314.36;1650233;86;20922;-84
2021/05/14 05:37:08;;;;;;;18.50;4.45;;;;;;;30.82;47.38;100309.00;1650319;86;21631;-84
2021/05/14 05:39:34;;;;;;;13.20;4.37;;;;;;;29.69;47.16;100317.97;1650218;86;21752;-84
2021/05/14 05:42:00;;;;;;;14.03;4.42;;;;;;;29.06;47.42;100321.65;1650423;86;21030;-84
2021/05/14 05:44:26;;;;;;;13.25;3.95;;;;;;;29.46;48.15;100323.09;1650264;86;21628;-84
2021/05/14 05:46:53;;;;;;;24.30;4.10;;;;;;;28.38;50.68;100327.43;1650405;86;20908;-84
2021/05/14 05:49:21;;;;;;;11.30;3.83;;;;;;;28.98;48.62;100306.92;1669063;85;21079;-85
2021/05/14 05:51:48;;;;;;;18.73;4.42;;;;;;;28.78;50.62;100313.20;1675852;85;21809;-84
2021/05/14 05:54:14;;;;;;;15.23;4.67;;;;;;;29.34;50.50;100315.34;1675669;85;21588;-84
2021/05/14 05:59:12;;;;;;;12.30;3.85;;;;;;;30.06;49.99;100308.39;1603858;89;21687;-83
2021/05/14 06:01:37;;;;;;;12.23;3.87;;;;;;;30.81;47.95;100303.25;1606800;89;21128;-83
2021/05/14 06:04:03;;;;;;;18.42;4.20;;;;;;;31.35;44.42;100297.55;1611258;89;21671;-83
2021/05/14 06:06:29;;;;;;;12.03;4.20;;;;;;;31.54;44.44;100299.02;1611195;89;21064;-83
2021/05/14 06:08:55;;;;;;;11.93;3.67;;;;;;;32.19;43.07;100303.41;1611116;89;21044;-83
2021/05/14 06:11:21;;;;;;;12.47;3.92;;;;;;;32.56;42.45;100312.38;1611148;89;20997;-83
2021/05/14 06:13:47;;;;;;;11.50;4.15;;;;;;;32.73;41.62;100305.57;1611168;89;20954;-84
2021/05/14 06:16:14;;;;;;;8.83;3.52;;;;;;;33.83;40.69;100303.75;1611048;89;21684;-83
2021/05/14 06:18:44;;;;;;;14.07;4.37;;;;;;;33.64;38.90;100297.66;1614649;87;21616;-83
2021/05/14 06:21:10;;;;;;;11.88;3.50;;;;;;;33.08;41.14;100303.53;1647488;84;21155;-85
2021/05/14 06:23:35;;;;;;;12.33;3.90;;;;;;;33.45;40.92;100302.56;1652690;86;21125;-85
2021/05/14 06:26:02;;;;;;;11.93;3.30;;;;;;;34.51;38.32;100297.66;1652622;86;21742;-83
2021/05/14 06:28:28;;;;;;;15.03;3.95;;;;;;;33.64;38.55;100293.47;1630254;86;21604;-90
2021/05/14 06:30:54;;;;;;;15.25;4.05;;;;;;;35.06;37.76;100305.72;1643755;86;21026;-85
2021/05/14 06:33:21;;;;;;;7.90;3.45;;;;;;;35.15;37.25;100300.30;1640097;87;20934;-86
2021/05/14 06:35:49;;;;;;;7.60;3.60;;;;;;;36.07;35.28;100295.05;1640053;87;21066;-86
2021/05/14 06:38:16;;;;;;;10.03;3.67;;;;;;;37.01;33.88;100298.94;1639488;85;21521;-87
2021/05/14 06:40:42;;;;;;;5.70;3.27;;;;;;;37.34;32.74;100303.53;1642547;85;21798;-86
2021/05/14 06:43:08;;;;;;;9.60;3.90;;;;;;;36.98;34.43;100311.05;1647648;85;21081;-85
2021/05/14 06:45:34;;;;;;;13.22;4.28;;;;;;;37.57;33.70;100310.20;1637014;87;20945;-86
2021/05/14 06:48:08;;;;;;;13.25;3.45;;;;;;;39.08;31.37;100312.58;1637076;87;21644;-86
2021/05/14 06:50:35;;;;;;;5.75;3.22;;;;;;;39.13;30.23;100304.16;1637725;87;21012;-87
2021/05/14 06:53:03;;;;;;;10.65;3.83;;;;;;;38.40;31.77;100303.91;1637787;87;21144;-87
2021/05/14 06:55:29;;;;;;;12.98;3.02;;;;;;;38.33;31.25;100306.34;1668918;81;21525;-85
2021/05/14 06:57:55;;;;;;;12.63;3.30;;;;;;;40.63;28.07;100309.78;1762551;81;21132;-86
2021/05/14 07:00:22;;;;;;;8.73;3.60;;;;;;;39.32;29.22;100307.83;1762620;81;20891;-84
2021/05/14 07:02:49;;;;;;;7.62;3.33;;;;;;;39.08;30.15;100303.48;1764814;81;21561;-84
2021/05/14 07:05:19;;;;;;;9.40;3.72;;;;;;;39.60;29.07;100305.23;1766421;81;21847;-84
2021/05/14 07:07:45;;;;;;;19.40;3.92;;;;;;;38.51;29.36;100293.03;1768319;81;21006;-84
2021/05/14 07:10:12;;;;;;;7.50;3.45;;;;;;;38.84;29.71;100294.76;1767992;80;21430;-84
2021/05/14 07:12:39;;;;;;;6.10;2.92;;;;;;;38.84;30.55;100290.53;1765462;80;21566;-84
2021/05/14 07:15:09;;;;;;;9.63;3.22;;;;;;;39.16;31.49;100291.95;1758951;81;21019;-85
2021/05/14 07:17:36;;;;;;;12.07;3.60;;;;;;;39.01;31.07;100293.14;1762642;81;21035;-84
2021/05/14 07:20:05;;;;;;;9.08;3.20;;;;;;;39.83;29.38;100283.31;1762346;81;21094;-84
2021/05/14 07:22:31;;;;;;;6.85;3.47;;;;;;;38.77;28.98;100282.38;1762845;81;21527;-85
2021/05/14 07:24:57;;;;;;;6.28;3.10;;;;;;;40.46;28.96;100287.98;1762368;80;21573;-84
2021/05/14 07:27:23;;;;;;;7.37;3.10;;;;;;;41.10;28.80;100296.92;1762400;80;21579;-84
2021/05/14 07:29:49;;;;;;;5.65;3.22;;;;;;;41.19;28.23;100289.80;1762192;81;21030;-84
2021/05/14 07:32:15;;;;;;;7.42;3.47;;;;;;;41.25;27.63;100290.70;1762328;81;21022;-84
2021/05/14 07:34:43;;;;;;;11.33;3.37;;;;;;;41.46;26.95;100302.98;1759227;81;20900;-84
2021/05/14 07:37:10;;;;;;;7.53;3.67;;;;;;;41.98;26.20;100304.38;1762689;81;21085;-84
2021/05/14 07:39:37;;;;;;;5.40;3.35;;;;;;;41.50;27.07;100300.14;1758395;80;21053;-84
2021/05/14 07:42:07;;;;;;;7.33;3.10;;;;;;;41.49;26.96;100294.34;1719285;82;21201;-84
2021/05/14 07:44:33;;;;;;;11.20;3.10;;;;;;;40.93;26.30;100290.84;1740487;81;21112;-82
2021/05/14 07:46:59;;;;;;;4.95;3.00;;;;;;;39.69;29.23;100295.36;1747658;81;21533;-85
2021/05/14 07:49:25;;;;;;;9.68;3.33;;;;;;;41.79;25.52;100300.09;1743841;82;21009;-85
2021/05/14 07:51:53;;;;;;;10.43;3.83;;;;;;;39.29;27.22;100288.36;1743686;82;21023;-86
2021/05/14 07:54:19;;;;;;;20.85;3.87;;;;;;;39.32;28.05;100290.28;1729752;81;21241;-85
2021/05/14 07:56:45;;;;;;;9.73;2.83;;;;;;;39.16;28.94;100301.81;1731745;81;21035;-85
2021/05/14 07:59:11;;;;;;;9.73;2.90;;;;;;;37.75;30.32;100298.34;1762691;81;20860;-84
2021/05/14 08:01:38;;;;;;;10.40;2.95;;;;;;;37.66;29.55;100301.08;1753449;81;20979;-85
2021/05/14 08:04:06;;;;;;;6.75;2.90;;;;;;;37.05;31.52;100304.44;1716911;82;21082;-84
2021/05/14 08:06:33;;;;;;;10.28;2.92;;;;;;;36.78;31.40;100309.06;1716905;82;21039;-84
2021/05/14 08:09:02;;;;;;;7.25;2.77;;;;;;;37.74;31.40;100299.59;1716710;82;21048;-84
2021/05/14 08:11:26;;;;;;;6.50;2.80;;;;;;;39.04;29.16;100293.63;1722484;82;20979;-85
2021/05/14 08:13:52;;;;;;;6.15;2.58;;;;;;;39.19;28.84;100301.66;1716475;82;21586;-85
2021/05/14 08:16:18;;;;;;;9.20;2.62;;;;;;;38.36;30.32;100305.43;1715957;82;20928;-85
2021/05/14 08:18:44;;;;;;;5.97;2.50;;;;;;;38.43;29.03;100303.62;1704141;83;21614;-85
2021/05/14 08:21:10;;;;;;;10.82;2.70;;;;;;;37.85;30.90;100311.23;1688883;83;20845;-83
2021/05/14 08:23:36;;;;;;;6.65;2.47;;;;;;;37.75;30.67;100305.37;1716078;82;20869;-84
2021/05/14 08:26:05;;;;;;;7.20;2.58;;;;;;;39.20;29.12;100306.04;1716327;82;20988;-83
2021/05/14 08:28:31;;;;;;;11.45;2.98;;;;;;;39.20;29.12;100306.04;1687864;83;21292;-83
2021/05/14 08:30:57;;;;;;;10.13;2.67;;;;;;;39.27;29.25;100307.80;1711017;83;21016;-84
2021/05/14 08:33:58;;;;;;;5.33;2.37;;;;;;;39.34;29.25;100315.20;1708650;83;21053;-84
2021/05/14 08:36:24;;;;;;;5.62;2.80;;;;;;;39.04;30.20;100309.13;1676845;85;21139;-84
2021/05/14 08:38:50;;;;;;;8.25;2.60;;;;;;;40.03;28.86;100310.44;1673041;85;20976;-83
2021/05/14 08:41:17;;;;;;;10.65;2.60;;;;;;;39.32;29.38;100307.83;1641413;85;20974;-84
2021/05/14 08:43:43;;;;;;;6.25;2.62;;;;;;;40.81;26.73;100303.92;1671517;85;21088;-84
2021/05/14 08:46:13;;;;;;;9.15;2.83;;;;;;;40.13;27.72;100296.48;1671363;85;21143;-83
2021/05/14 08:48:41;;;;;;;7.20;2.42;;;;;;;40.91;26.86;100309.68;1662560;86;21084;-85
2021/05/14 08:51:12;;;;;;;6.00;2.65;;;;;;;40.54;27.83;100306.95;1662760;86;21049;-86
2021/05/14 08:53:44;;;;;;;6.37;2.65;;;;;;;40.19;27.73;100308.74;1663306;86;21088;-83
2021/05/14 08:56:10;;;;;;;;;;;;;;;39.78;28.38;100305.13;1662372;86;21195;-83
2021/05/14 08:58:41;;;;;;;5.67;2.60;;;;;;;39.99;28.11;100305.59;1679233;85;20678;-82
2021/05/14 09:01:07;;;;;;;8.27;2.73;;;;;;;39.34;28.78;100283.55;1676997;85;21073;-85
2021/05/14 09:04:06;;;;;;;11.48;2.60;;;;;;;38.84;28.47;100308.07;1676732;85;21574;-84
2021/05/14 09:06:38;;;;;;;6.97;2.40;;;;;;;38.18;29.09;100310.31;1681008;85;21068;-84
2021/05/14 09:09:07;;;;;;;9.68;2.67;;;;;;;38.58;29.13;100308.23;1681471;85;21065;-84
2021/05/14 09:11:49;;;;;;;8.88;2.35;;;;;;;37.98;29.95;100311.23;1659469;84;21247;-84
2021/05/14 09:14:41;;;;;;;9.15;2.40;;;;;;;38.97;28.15;100307.98;1685961;83;20973;-85
2021/05/14 09:17:10;;;;;;;15.10;2.62;;;;;;;38.71;28.25;100304.55;1681579;85;21076;-85
2021/05/14 09:19:39;;;;;;;7.58;1.95;;;;;;;39.17;28.12;100318.25;1681862;85;21051;-84
2021/05/14 09:22:22;;;;;;;7.40;2.33;;;;;;;39.05;27.18;100304.42;1658881;86;22482;-84
2021/05/14 09:25:02;;;;;;;14.47;2.65;;;;;;;38.24;27.92;100318.95;1556778;91;21699;-83
2021/05/14 09:27:31;;;;;;;8.10;2.58;;;;;;;37.87;29.03;100324.87;1559359;90;21131;-84
2021/05/14 09:30:03;;;;;;;8.98;2.55;;;;;;;36.90;30.62;100319.52;1555107;91;21144;-83
2021/05/14 09:32:35;;;;;;;6.00;2.37;;;;;;;36.54;31.03;100319.19;1558888;91;21139;-84
2021/05/14 09:35:05;;;;;;;7.95;2.40;;;;;;;36.52;30.88;100318.84;1558493;91;21138;-84
2021/05/14 09:37:31;;;;;;;4.58;2.20;;;;;;;35.87;31.96;100323.97;1558252;91;21112;-84
2021/05/14 09:40:23;;;;;;;9.75;2.85;;;;;;;35.97;31.89;100317.12;1558970;90;21064;-83
2021/05/14 09:42:58;;;;;;;12.03;2.75;;;;;;;36.01;32.01;100321.41;1532294;91;21151;-85
2021/05/14 09:45:27;;;;;;;9.75;2.55;;;;;;;36.20;32.44;100323.92;1544644;91;21132;-85
2021/05/14 09:50:45;;;;;;;10.48;2.72;;;;;;;34.61;34.11;100316.09;1499431;95;21271;-84
2021/05/14 09:53:18;;;;;;;9.20;2.58;;;;;;;35.84;31.74;100315.04;1471097;96;21133;-83
2021/05/14 09:56:02;;;;;;;6.78;2.52;;;;;;;35.46;32.24;100317.59;1463422;97;21158;-83
2021/05/14 09:58:30;;;;;;;7.92;2.35;;;;;;;34.98;33.81;100310.69;1472349;96;21161;-85
2021/05/14 10:00:54;;;;;;;11.78;2.50;;;;;;;35.03;33.92;100315.75;1464864;97;21148;-85
2021/05/14 10:03:22;;;;;;;11.15;2.58;;;;;;;34.71;34.25;100315.06;1466447;96;21184;-85
2021/05/14 10:05:50;;;;;;;7.60;2.70;;;;;;;34.70;34.33;100312.09;1430918;98;21786;-85
2021/05/14 10:08:20;;;;;;;5.53;2.35;;;;;;;34.54;35.04;100312.80;1468021;96;21659;-86
2021/05/14 10:10:47;;;;;;;8.98;2.45;;;;;;;34.29;34.08;100318.27;1460226;96;21105;-84
2021/05/14 10:13:14;;;;;;;10.50;2.42;;;;;;;34.20;34.20;100308.88;1460265;96;21083;-87
2021/05/14 10:15:41;;;;;;;7.58;2.62;;;;;;;34.38;32.38;100307.30;1460186;97;21135;-86
2021/05/14 10:18:18;;;;;;;7.25;1.90;;;;;;;33.92;32.51;100308.97;1463918;93;21135;-84
2021/05/14 10:20:46;;;;;;;6.12;2.20;;;;;;;34.20;32.04;100314.48;1532700;89;21183;-84
2021/05/14 10:23:12;;;;;;;11.40;2.30;;;;;;;33.51;33.55;100317.66;1569596;89;21089;-85
2021/05/14 10:25:50;;;;;;;9.40;2.00;;;;;;;33.71;32.33;100317.73;1571404;90;21185;-84
2021/05/14 10:28:24;;;;;;;8.30;2.27;;;;;;;33.32;32.85;100319.72;1571189;91;21085;-84
2021/05/14 10:33:43;;;;;;;6.55;1.90;;;;;;;32.71;32.79;100316.35;1553572;92;21619;-84
2021/05/14 10:36:32;;;;;;;6.95;2.42;;;;;;;32.63;33.74;100321.86;1551862;92;21154;-85
2021/05/14 10:39:21;;;;;;;7.92;2.40;;;;;;;32.47;35.04;100319.03;1576165;89;21677;-83
2021/05/14 10:41:52;;;;;;;12.65;2.60;;;;;;;32.44;35.51;100321.23;1587506;89;21171;-84
2021/05/14 10:44:43;;;;;;;5.70;2.10;;;;;;;32.87;34.36;100326.32;1436993;99;21626;-85
2021/05/14 10:47:30;;;;;;;11.88;2.58;;;;;;;32.72;35.35;100322.14;1420151;99;21571;-84
2021/05/14 10:50:07;;;;;;;7.95;2.27;;;;;;;32.48;34.66;100319.24;1394551;102;21178;-84
2021/05/14 10:52:34;;;;;;;5.87;2.42;;;;;;;32.74;34.95;100318.34;1394491;102;21170;-85
2021/05/14 10:55:00;;;;;;;9.25;2.25;;;;;;;32.32;36.48;100319.77;1394800;100;21166;-84
2021/05/14 10:57:45;;;;;;;9.15;2.92;;;;;;;32.43;37.33;100314.69;1397326;102;22575;-84
2021/05/14 11:00:31;;;;;;;9.40;3.10;;;;;;;32.59;35.58;100323.28;1397636;102;21151;-84
2021/05/14 11:03:15;;;;;;;9.20;2.70;;;;;;;32.66;34.49;100320.41;1406206;99;21212;-84
2021/05/14 11:05:44;;;;;;;10.03;3.10;;;;;;;32.24;35.36;100314.11;1419775;100;21201;-85
2021/05/14 11:08:38;;;;;;;11.38;3.22;;;;;;;32.26;34.89;100317.86;1419632;99;21633;-88
2021/05/14 11:11:12;;;;;;;11.43;2.77;;;;;;;32.13;34.34;100308.64;1419899;100;21142;-88
2021/05/14 11:13:48;;;;;;;7.78;3.30;;;;;;;31.82;35.69;100308.31;1419692;100;21133;-88
2021/05/14 11:16:43;;;;;;;18.62;5.70;;;;;;;31.56;35.53;100311.13;1419488;100;21165;-86
2021/05/14 11:19:23;;;;;;;8.08;3.80;;;;;;;30.89;36.57;100309.77;1420531;99;21331;-84
2021/05/14 11:22:10;;;;;;;9.93;3.20;;;;;;;31.38;37.20;100312.66;1420592;99;21195;-85
2021/05/14 11:24:43;;;;;;;16.17;4.40;;;;;;;30.74;39.50;100306.84;1420539;99;21205;-88
2021/05/14 11:27:13;;;;;;;10.93;3.65;;;;;;;31.16;36.45;100304.43;1420803;99;21675;-86
2021/05/14 11:29:47;;;;;;;11.65;3.40;;;;;;;30.98;36.33;100303.16;1402694;98;21110;-87
2021/05/14 11:32:21;;;;;;;15.83;3.50;;;;;;;30.93;36.25;100298.00;1430267;99;21302;-86
2021/05/14 11:35:04;;;;;;;12.70;3.83;;;;;;;31.29;35.15;100303.34;1418910;99;21160;-87